createdAt,value
2018-11-10T00:00:39.364Z,979.48
2018-11-10T00:01:46.358Z,979.35
2018-11-10T00:02:53.111Z,979.35
2018-11-10T00:03:59.880Z,979.36
2018-11-10T00:05:06.740Z,979.37
2018-11-10T00:06:13.554Z,979.35
2018-11-10T00:07:20.479Z,979.38
2018-11-10T00:08:27.401Z,979.39
2018-11-10T00:09:34.054Z,979.30
2018-11-10T00:10:40.861Z,979.27
2018-11-10T00:11:47.603Z,979.25
2018-11-10T00:12:54.401Z,979.26
2018-11-10T00:14:01.239Z,979.20
2018-11-10T00:15:08.106Z,979.11
2018-11-10T00:16:15.277Z,979.16
2018-11-10T00:17:22.131Z,979.06
2018-11-10T00:18:28.875Z,979.05
2018-11-10T00:19:35.588Z,979.09
2018-11-10T00:20:42.375Z,979.09
2018-11-10T00:21:49.115Z,979.13
2018-11-10T00:22:55.855Z,979.08
2018-11-10T00:24:02.603Z,979.07
2018-11-10T00:25:09.694Z,979.07
2018-11-10T00:26:16.721Z,979.04
2018-11-10T00:27:23.450Z,979.09
2018-11-10T00:28:30.178Z,979.04
2018-11-10T00:29:36.914Z,979.10
2018-11-10T00:30:43.623Z,979.05
2018-11-10T00:31:50.393Z,979.06
2018-11-10T00:32:57.158Z,979.03
2018-11-10T00:34:03.913Z,978.99
2018-11-10T00:35:10.650Z,979.06
2018-11-10T00:36:17.620Z,979.01
2018-11-10T00:37:24.386Z,978.84
2018-11-10T00:38:31.163Z,978.98
2018-11-10T00:39:37.924Z,978.89
2018-11-10T00:40:44.736Z,978.88
2018-11-10T00:41:51.670Z,978.80
2018-11-10T00:42:58.476Z,978.85
2018-11-10T00:44:05.265Z,978.88
2018-11-10T00:45:11.987Z,978.77
2018-11-10T00:46:18.775Z,978.88
2018-11-10T00:47:25.538Z,978.87
2018-11-10T00:48:32.329Z,978.79
2018-11-10T00:49:39.114Z,978.75
2018-11-10T00:50:45.893Z,978.79
2018-11-10T00:51:52.707Z,978.73
2018-11-10T00:52:59.573Z,978.77
2018-11-10T00:54:06.429Z,978.65
2018-11-10T00:55:13.191Z,978.75
2018-11-10T00:56:19.968Z,978.64
2018-11-10T00:57:26.802Z,978.68
2018-11-10T00:58:33.555Z,978.60
2018-11-10T00:59:40.339Z,978.54
2018-11-10T01:00:47.154Z,978.56
2018-11-10T01:01:53.941Z,978.57
2018-11-10T01:03:00.702Z,978.53
2018-11-10T01:04:07.526Z,978.59
2018-11-10T01:05:14.294Z,978.63
2018-11-10T01:06:21.085Z,978.55
2018-11-10T01:07:27.974Z,978.57
2018-11-10T01:08:34.742Z,978.60
2018-11-10T01:09:41.529Z,978.52
2018-11-10T01:10:48.347Z,978.54
2018-11-10T01:11:55.121Z,978.53
2018-11-10T01:13:01.887Z,978.61
2018-11-10T01:14:08.633Z,978.56
2018-11-10T01:15:15.379Z,978.60
2018-11-10T01:16:22.186Z,978.49
2018-11-10T01:17:29.023Z,978.54
2018-11-10T01:18:35.768Z,978.45
2018-11-10T01:19:42.539Z,978.46
2018-11-10T01:20:49.378Z,978.48
2018-11-10T01:21:56.175Z,978.44
2018-11-10T01:23:02.934Z,978.46
2018-11-10T01:24:09.742Z,978.37
2018-11-10T01:25:16.491Z,978.36
2018-11-10T01:26:23.270Z,978.37
2018-11-10T01:27:30.114Z,978.36
2018-11-10T01:28:36.897Z,978.33
2018-11-10T01:29:43.670Z,978.28
2018-11-10T01:30:50.442Z,978.30
2018-11-10T01:31:57.238Z,978.31
2018-11-10T01:33:03.990Z,978.25
2018-11-10T01:34:10.781Z,978.35
2018-11-10T01:35:17.534Z,978.29
2018-11-10T01:36:24.286Z,978.29
2018-11-10T01:37:31.058Z,978.31
2018-11-10T01:38:37.798Z,978.25
2018-11-10T01:39:44.597Z,978.21
2018-11-10T01:40:51.360Z,978.16
2018-11-10T01:41:58.160Z,978.10
2018-11-10T01:43:04.957Z,978.12
2018-11-10T01:44:11.723Z,978.10
2018-11-10T01:45:18.475Z,978.08
2018-11-10T01:46:25.260Z,978.06
2018-11-10T01:47:32.034Z,978.00
2018-11-10T01:48:38.901Z,978.03
2018-11-10T01:49:45.726Z,977.92
2018-11-10T01:50:52.444Z,978.03
2018-11-10T01:51:59.232Z,977.92
2018-11-10T01:53:06.074Z,977.98
2018-11-10T01:54:12.920Z,977.81
2018-11-10T01:55:19.802Z,977.80
2018-11-10T01:56:26.682Z,977.75
2018-11-10T01:57:33.627Z,977.79
2018-11-10T01:58:40.537Z,977.83
2018-11-10T01:59:47.299Z,977.72
2018-11-10T02:00:54.130Z,977.79
2018-11-10T02:02:00.978Z,977.79
2018-11-10T02:03:07.694Z,977.73
2018-11-10T02:04:14.490Z,977.71
2018-11-10T02:05:21.265Z,977.79
2018-11-10T02:06:28.050Z,977.64
2018-11-10T02:07:34.874Z,977.62
2018-11-10T02:08:41.671Z,977.64
2018-11-10T02:09:48.448Z,977.63
2018-11-10T02:10:55.197Z,977.64
2018-11-10T02:12:02.004Z,977.56
2018-11-10T02:13:08.804Z,977.57
2018-11-10T02:14:15.587Z,977.53
2018-11-10T02:15:22.446Z,977.50
2018-11-10T02:16:29.223Z,977.56
2018-11-10T02:17:36.032Z,977.54
2018-11-10T02:18:43.055Z,977.53
2018-11-10T02:19:49.878Z,977.52
2018-11-10T02:20:56.698Z,977.50
2018-11-10T02:22:03.509Z,977.53
2018-11-10T02:23:10.354Z,977.55
2018-11-10T02:24:17.212Z,977.58
2018-11-10T02:25:24.066Z,977.55
2018-11-10T02:26:30.934Z,977.48
2018-11-10T02:27:37.928Z,977.55
2018-11-10T02:28:44.847Z,977.53
2018-11-10T02:29:51.794Z,977.50
2018-11-10T02:30:58.466Z,977.55
2018-11-10T02:32:05.235Z,977.55
2018-11-10T02:33:12.032Z,977.55
2018-11-10T02:34:18.805Z,977.45
2018-11-10T02:35:25.698Z,977.51
2018-11-10T02:36:32.506Z,977.41
2018-11-10T02:37:39.335Z,977.49
2018-11-10T02:38:46.473Z,977.43
2018-11-10T02:39:53.246Z,977.45
2018-11-10T02:41:00.020Z,977.51
2018-11-10T02:42:06.806Z,977.55
2018-11-10T02:43:14.448Z,977.46
2018-11-10T02:44:20.694Z,977.53
2018-11-10T02:45:27.482Z,977.43
2018-11-10T02:46:34.243Z,977.46
2018-11-10T02:47:40.997Z,977.39
2018-11-10T02:48:47.896Z,977.38
2018-11-10T02:49:54.663Z,977.42
2018-11-10T02:51:01.723Z,977.45
2018-11-10T02:52:08.630Z,977.33
2018-11-10T02:53:15.492Z,977.32
2018-11-10T02:54:22.329Z,977.36
2018-11-10T02:55:29.146Z,977.38
2018-11-10T02:56:36.048Z,977.38
2018-11-10T02:57:42.870Z,977.37
2018-11-10T02:58:49.606Z,977.36
2018-11-10T02:59:56.390Z,977.32
2018-11-10T03:01:03.242Z,977.32
2018-11-10T03:02:10.002Z,977.28
2018-11-10T03:03:16.793Z,977.37
2018-11-10T03:04:23.625Z,977.29
2018-11-10T03:05:30.486Z,977.33
2018-11-10T03:06:37.278Z,977.25
2018-11-10T03:07:44.046Z,977.27
2018-11-10T03:08:50.834Z,977.28
2018-11-10T03:09:57.586Z,977.24
2018-11-10T03:11:04.351Z,977.22
2018-11-10T03:12:11.163Z,977.21
2018-11-10T03:13:17.967Z,977.17
2018-11-10T03:14:24.842Z,977.14
2018-11-10T03:15:31.618Z,977.13
2018-11-10T03:16:38.378Z,977.17
2018-11-10T03:17:45.235Z,977.22
2018-11-10T03:18:52.022Z,977.22
2018-11-10T03:19:58.822Z,977.21
2018-11-10T03:21:05.589Z,977.17
2018-11-10T03:22:12.406Z,977.20
2018-11-10T03:23:19.176Z,977.16
2018-11-10T03:24:25.956Z,977.10
2018-11-10T03:25:32.731Z,977.11
2018-11-10T03:26:39.519Z,977.16
2018-11-10T03:27:46.292Z,977.18
2018-11-10T03:28:53.098Z,977.21
2018-11-10T03:29:59.854Z,977.12
2018-11-10T03:31:06.654Z,977.18
2018-11-10T03:32:13.442Z,977.16
2018-11-10T03:33:20.234Z,977.10
2018-11-10T03:34:27.015Z,977.14
2018-11-10T03:35:33.769Z,977.12
2018-11-10T03:36:40.554Z,977.09
2018-11-10T03:37:47.371Z,977.02
2018-11-10T03:38:54.150Z,977.11
2018-11-10T03:40:00.931Z,977.03
2018-11-10T03:41:07.922Z,977.06
2018-11-10T03:42:14.674Z,976.98
2018-11-10T03:43:21.471Z,977.12
2018-11-10T03:44:28.233Z,977.15
2018-11-10T03:45:35.035Z,977.03
2018-11-10T03:46:41.839Z,976.90
2018-11-10T03:47:48.630Z,977.01
2018-11-10T03:48:55.524Z,976.95
2018-11-10T03:50:02.204Z,976.95
2018-11-10T03:51:09.006Z,977.03
2018-11-10T03:52:15.984Z,976.95
2018-11-10T03:53:22.954Z,976.89
2018-11-10T03:54:29.722Z,976.95
2018-11-10T03:55:36.538Z,976.92
2018-11-10T03:56:43.390Z,976.92
2018-11-10T03:57:50.215Z,976.88
2018-11-10T03:58:57.062Z,976.95
2018-11-10T04:00:03.904Z,976.94
2018-11-10T04:01:10.736Z,976.92
2018-11-10T04:02:17.610Z,976.95
2018-11-10T04:03:24.884Z,976.87
2018-11-10T04:04:31.938Z,976.88
2018-11-10T04:05:38.491Z,976.89
2018-11-10T04:06:45.246Z,976.89
2018-11-10T04:07:52.030Z,976.91
2018-11-10T04:08:58.921Z,976.88
2018-11-10T04:10:05.782Z,976.91
2018-11-10T04:11:12.578Z,976.84
2018-11-10T04:12:19.455Z,976.82
2018-11-10T04:13:26.340Z,976.84
2018-11-10T04:14:33.167Z,976.82
2018-11-10T04:15:39.937Z,976.77
2018-11-10T04:16:46.734Z,976.77
2018-11-10T04:17:53.479Z,976.71
2018-11-10T04:19:00.290Z,976.84
2018-11-10T04:20:07.135Z,976.82
2018-11-10T04:21:14.047Z,976.74
2018-11-10T04:22:20.867Z,976.82
2018-11-10T04:23:27.862Z,976.70
2018-11-10T04:24:34.646Z,976.74
2018-11-10T04:25:41.487Z,976.77
2018-11-10T04:26:48.278Z,976.76
2018-11-10T04:27:55.046Z,976.62
2018-11-10T04:29:02.149Z,976.81
2018-11-10T04:30:09.115Z,976.73
2018-11-10T04:31:15.990Z,976.60
2018-11-10T04:32:22.758Z,976.61
2018-11-10T04:33:29.626Z,976.69
2018-11-10T04:34:36.562Z,976.62
2018-11-10T04:35:43.594Z,976.58
2018-11-10T04:36:50.330Z,976.60
2018-11-10T04:37:57.983Z,976.54
2018-11-10T04:39:04.274Z,976.54
2018-11-10T04:40:11.409Z,976.51
2018-11-10T04:41:18.226Z,976.57
2018-11-10T04:42:24.994Z,976.50
2018-11-10T04:43:31.888Z,976.57
2018-11-10T04:44:38.657Z,976.57
2018-11-10T04:45:45.535Z,976.55
2018-11-10T04:46:52.322Z,976.55
2018-11-10T04:47:59.067Z,976.50
2018-11-10T04:49:05.901Z,976.58
2018-11-10T04:50:12.646Z,976.63
2018-11-10T04:51:19.435Z,976.57
2018-11-10T04:52:26.313Z,976.52
2018-11-10T04:53:33.118Z,976.59
2018-11-10T04:54:43.711Z,976.57
2018-11-10T04:55:46.963Z,976.56
2018-11-10T04:56:53.797Z,976.54
2018-11-10T04:58:00.538Z,976.67
2018-11-10T04:59:07.315Z,976.61
2018-11-10T05:00:14.216Z,976.65
2018-11-10T05:01:21.354Z,976.61
2018-11-10T05:02:28.116Z,976.50
2018-11-10T05:03:34.885Z,976.51
2018-11-10T05:04:41.730Z,976.64
2018-11-10T05:05:48.483Z,976.54
2018-11-10T05:06:58.173Z,976.62
2018-11-10T05:08:02.442Z,976.62
2018-11-10T05:09:09.338Z,976.58
2018-11-10T05:10:16.027Z,976.59
2018-11-10T05:11:22.766Z,976.67
2018-11-10T05:12:29.546Z,976.66
2018-11-10T05:13:36.302Z,976.63
2018-11-10T05:14:43.086Z,976.59
2018-11-10T05:15:49.923Z,976.66
2018-11-10T05:16:56.718Z,976.64
2018-11-10T05:18:03.469Z,976.66
2018-11-10T05:19:10.294Z,976.70
2018-11-10T05:20:17.057Z,976.61
2018-11-10T05:21:23.826Z,976.63
2018-11-10T05:22:30.663Z,976.62
2018-11-10T05:23:37.494Z,976.72
2018-11-10T05:24:44.407Z,976.62
2018-11-10T05:25:51.277Z,976.73
2018-11-10T05:26:58.157Z,976.74
2018-11-10T05:28:04.898Z,976.79
2018-11-10T05:29:11.768Z,976.79
2018-11-10T05:30:18.562Z,976.76
2018-11-10T05:31:25.344Z,976.89
2018-11-10T05:32:32.078Z,976.85
2018-11-10T05:33:38.926Z,976.79
2018-11-10T05:34:45.777Z,976.98
2018-11-10T05:35:52.573Z,976.88
2018-11-10T05:36:59.326Z,976.95
2018-11-10T05:38:06.141Z,977.01
2018-11-10T05:39:12.887Z,976.97
2018-11-10T05:40:19.750Z,976.90
2018-11-10T05:41:26.537Z,977.03
2018-11-10T05:42:33.459Z,977.03
2018-11-10T05:43:40.297Z,976.98
2018-11-10T05:44:47.094Z,976.98
2018-11-10T05:45:53.863Z,977.05
2018-11-10T05:47:00.661Z,977.15
2018-11-10T05:48:07.506Z,977.10
2018-11-10T05:49:14.317Z,977.12
2018-11-10T05:50:21.378Z,977.16
2018-11-10T05:51:28.287Z,977.06
2018-11-10T05:52:35.139Z,977.04
2018-11-10T05:53:42.120Z,977.05
2018-11-10T05:54:49.448Z,977.19
2018-11-10T05:55:55.880Z,977.12
2018-11-10T05:57:02.767Z,977.08
2018-11-10T05:58:09.539Z,977.17
2018-11-10T05:59:16.421Z,977.06
2018-11-10T06:00:23.202Z,977.20
2018-11-10T06:01:29.933Z,977.18
2018-11-10T06:02:36.786Z,977.13
2018-11-10T06:03:43.613Z,977.09
2018-11-10T06:04:50.376Z,977.07
2018-11-10T06:05:57.197Z,977.13
2018-11-10T06:07:04.233Z,977.11
2018-11-10T06:08:11.097Z,977.06
2018-11-10T06:09:18.052Z,977.10
2018-11-10T06:10:25.156Z,977.07
2018-11-10T06:11:31.744Z,977.05
2018-11-10T06:12:38.517Z,977.09
2018-11-10T06:13:45.542Z,977.14
2018-11-10T06:14:52.370Z,977.11
2018-11-10T06:15:59.276Z,977.18
2018-11-10T06:17:06.043Z,977.16
2018-11-10T06:18:13.059Z,977.24
2018-11-10T06:19:19.814Z,977.18
2018-11-10T06:20:26.614Z,977.25
2018-11-10T06:21:33.370Z,977.22
2018-11-10T06:22:40.182Z,977.23
2018-11-10T06:23:47.083Z,977.15
2018-11-10T06:24:53.894Z,977.24
2018-11-10T06:25:23.237Z,977.14
2018-11-10T06:26:29.566Z,977.19
2018-11-10T06:27:36.338Z,977.27
2018-11-10T06:28:43.324Z,977.25
2018-11-10T06:29:50.100Z,977.21
2018-11-10T06:30:56.882Z,977.28
2018-11-10T06:32:03.694Z,977.26
2018-11-10T06:33:10.480Z,977.32
2018-11-10T06:34:17.279Z,977.31
2018-11-10T06:35:24.101Z,977.26
2018-11-10T06:36:30.950Z,977.29
2018-11-10T06:37:37.737Z,977.30
2018-11-10T06:38:44.468Z,977.31
2018-11-10T06:39:51.343Z,977.27
2018-11-10T06:40:58.151Z,977.32
2018-11-10T06:42:04.986Z,977.27
2018-11-10T06:43:11.760Z,977.31
2018-11-10T06:44:18.580Z,977.32
2018-11-10T06:45:25.482Z,977.31
2018-11-10T06:46:32.295Z,977.30
2018-11-10T06:47:39.196Z,977.27
2018-11-10T06:48:46.066Z,977.26
2018-11-10T06:49:52.972Z,977.23
2018-11-10T06:50:59.770Z,977.20
2018-11-10T06:52:06.559Z,977.25
2018-11-10T06:53:13.436Z,977.26
2018-11-10T06:54:20.243Z,977.29
2018-11-10T06:55:27.122Z,977.28
2018-11-10T06:56:34.097Z,977.29
2018-11-10T06:57:41.002Z,977.24
2018-11-10T06:58:47.942Z,977.23
2018-11-10T06:59:54.867Z,977.26
2018-11-10T07:01:01.775Z,977.32
2018-11-10T07:02:08.840Z,977.23
2018-11-10T07:03:15.686Z,977.29
2018-11-10T07:04:22.530Z,977.32
2018-11-10T07:05:29.351Z,977.39
2018-11-10T07:06:36.128Z,977.41
2018-11-10T07:07:42.962Z,977.36
2018-11-10T07:08:49.822Z,977.34
2018-11-10T07:09:56.638Z,977.37
2018-11-10T07:11:03.421Z,977.36
2018-11-10T07:12:10.235Z,977.32
2018-11-10T07:13:17.030Z,977.35
2018-11-10T07:14:23.808Z,977.33
2018-11-10T07:15:30.699Z,977.30
2018-11-10T07:16:37.559Z,977.39
2018-11-10T07:17:44.438Z,977.40
2018-11-10T07:18:51.261Z,977.40
2018-11-10T07:19:58.123Z,977.39
2018-11-10T07:21:04.998Z,977.40
2018-11-10T07:22:11.806Z,977.37
2018-11-10T07:23:18.626Z,977.35
2018-11-10T07:24:25.446Z,977.34
2018-11-10T07:25:32.260Z,977.33
2018-11-10T07:26:39.018Z,977.37
2018-11-10T07:27:45.794Z,977.30
2018-11-10T07:28:52.597Z,977.29
2018-11-10T07:29:59.385Z,977.35
2018-11-10T07:31:06.278Z,977.34
2018-11-10T07:32:13.139Z,977.42
2018-11-10T07:33:19.919Z,977.43
2018-11-10T07:34:26.761Z,977.40
2018-11-10T07:35:33.638Z,977.47
2018-11-10T07:36:40.428Z,977.45
2018-11-10T07:37:47.233Z,977.47
2018-11-10T07:38:54.026Z,977.46
2018-11-10T07:40:01.251Z,977.39
2018-11-10T07:41:07.922Z,977.42
2018-11-10T07:42:14.730Z,977.50
2018-11-10T07:43:21.594Z,977.49
2018-11-10T07:44:28.478Z,977.51
2018-11-10T07:45:35.282Z,977.46
2018-11-10T07:46:42.190Z,977.44
2018-11-10T07:47:49.066Z,977.37
2018-11-10T07:48:56.031Z,977.42
2018-11-10T07:50:02.806Z,977.46
2018-11-10T07:51:09.836Z,977.46
2018-11-10T07:52:16.802Z,977.48
2018-11-10T07:53:23.740Z,977.49
2018-11-10T07:54:30.771Z,977.51
2018-11-10T07:55:37.731Z,977.52
2018-11-10T07:56:44.551Z,977.55
2018-11-10T07:57:51.421Z,977.52
2018-11-10T07:58:58.283Z,977.55
2018-11-10T08:00:05.126Z,977.53
2018-11-10T08:01:12.166Z,977.52
2018-11-10T08:02:19.002Z,977.50
2018-11-10T08:03:25.887Z,977.55
2018-11-10T08:04:32.800Z,977.50
2018-11-10T08:05:39.751Z,977.53
2018-11-10T08:06:46.553Z,977.52
2018-11-10T08:07:53.462Z,977.50
2018-11-10T08:09:00.335Z,977.48
2018-11-10T08:10:07.056Z,977.46
2018-11-10T08:11:13.840Z,977.48
2018-11-10T08:12:20.695Z,977.49
2018-11-10T08:13:27.643Z,977.52
2018-11-10T08:14:34.506Z,977.52
2018-11-10T08:15:41.723Z,977.55
2018-11-10T08:16:49.387Z,977.54
2018-11-10T08:17:55.272Z,977.51
2018-11-10T08:19:02.128Z,977.64
2018-11-10T08:20:08.904Z,977.62
2018-11-10T08:21:16.032Z,977.59
2018-11-10T08:22:22.999Z,977.59
2018-11-10T08:23:29.939Z,977.61
2018-11-10T08:24:36.786Z,977.57
2018-11-10T08:25:43.670Z,977.63
2018-11-10T08:26:50.531Z,977.55
2018-11-10T08:27:57.338Z,977.58
2018-11-10T08:29:04.183Z,977.56
2018-11-10T08:30:11.023Z,977.69
2018-11-10T08:31:18.000Z,977.55
2018-11-10T08:32:24.739Z,977.60
2018-11-10T08:33:31.679Z,977.70
2018-11-10T08:34:38.530Z,977.60
2018-11-10T08:35:45.458Z,977.64
2018-11-10T08:36:52.339Z,977.68
2018-11-10T08:37:59.151Z,977.64
2018-11-10T08:39:06.040Z,977.64
2018-11-10T08:40:12.895Z,977.65
2018-11-10T08:41:20.034Z,977.67
2018-11-10T08:42:26.870Z,977.74
2018-11-10T08:42:45.737Z,977.62
2018-11-10T08:43:52.507Z,977.67
2018-11-10T08:44:59.410Z,977.63
2018-11-10T08:46:06.307Z,977.68
2018-11-10T08:47:13.179Z,977.65
2018-11-10T08:48:20.159Z,977.56
2018-11-10T08:49:26.935Z,977.65
2018-11-10T08:50:33.736Z,977.67
2018-11-10T08:51:40.831Z,977.67
2018-11-10T08:52:47.782Z,977.70
2018-11-10T08:53:54.702Z,977.64
2018-11-10T08:55:01.620Z,977.66
2018-11-10T08:56:10.582Z,977.69
2018-11-10T08:57:15.430Z,977.60
2018-11-10T08:58:22.182Z,977.61
2018-11-10T08:59:28.965Z,977.59
2018-11-10T09:00:35.850Z,977.67
2018-11-10T09:01:42.733Z,977.53
2018-11-10T09:02:49.571Z,977.65
2018-11-10T09:03:56.459Z,977.63
2018-11-10T09:05:03.267Z,977.61
2018-11-10T09:06:10.110Z,977.62
2018-11-10T09:07:17.012Z,977.64
2018-11-10T09:08:23.890Z,977.53
2018-11-10T09:09:30.740Z,977.58
2018-11-10T09:10:37.615Z,977.61
2018-11-10T09:11:44.427Z,977.57
2018-11-10T09:12:51.241Z,977.70
2018-11-10T09:13:58.142Z,977.56
2018-11-10T09:15:05.014Z,977.57
2018-11-10T09:16:12.050Z,977.60
2018-11-10T09:17:18.928Z,977.65
2018-11-10T09:18:25.833Z,977.59
2018-11-10T09:19:32.729Z,977.55
2018-11-10T09:20:39.558Z,977.58
2018-11-10T09:21:46.355Z,977.59
2018-11-10T09:22:53.164Z,977.62
2018-11-10T09:24:00.073Z,977.61
2018-11-10T09:25:06.972Z,977.61
2018-11-10T09:26:13.842Z,977.68
2018-11-10T09:27:20.625Z,977.68
2018-11-10T09:28:27.490Z,977.68
2018-11-10T09:29:34.258Z,977.67
2018-11-10T09:30:41.119Z,977.65
2018-11-10T09:31:47.994Z,977.66
2018-11-10T09:32:54.840Z,977.67
2018-11-10T09:34:05.873Z,977.62
2018-11-10T09:35:08.790Z,977.68
2018-11-10T09:36:15.930Z,977.72
2018-11-10T09:37:22.731Z,977.63
2018-11-10T09:38:29.614Z,977.63
2018-11-10T09:39:36.435Z,977.62
2018-11-10T09:40:43.254Z,977.61
2018-11-10T09:41:50.143Z,977.61
2018-11-10T09:42:57.043Z,977.63
2018-11-10T09:44:03.912Z,977.65
2018-11-10T09:45:10.811Z,977.60
2018-11-10T09:46:18.059Z,977.64
2018-11-10T09:47:25.035Z,977.68
2018-11-10T09:48:31.889Z,977.65
2018-11-10T09:49:38.763Z,977.67
2018-11-10T09:50:46.166Z,977.70
2018-11-10T09:51:52.838Z,977.69
2018-11-10T09:52:59.737Z,977.68
2018-11-10T09:54:06.614Z,977.67
2018-11-10T09:55:13.483Z,977.64
2018-11-10T09:56:20.339Z,977.68
2018-11-10T09:57:27.179Z,977.69
2018-11-10T09:58:34.046Z,977.65
2018-11-10T09:59:41.095Z,977.65
2018-11-10T10:00:47.975Z,977.57
2018-11-10T10:01:54.990Z,977.67
2018-11-10T10:03:01.786Z,977.63
2018-11-10T10:04:08.692Z,977.57
2018-11-10T10:05:15.568Z,977.65
2018-11-10T10:06:22.614Z,977.63
2018-11-10T10:07:29.532Z,977.61
2018-11-10T10:08:36.438Z,977.60
2018-11-10T10:09:44.333Z,977.58
2018-11-10T10:10:50.159Z,977.55
2018-11-10T10:11:57.063Z,977.57
2018-11-10T10:13:03.965Z,977.63
2018-11-10T10:14:10.791Z,977.57
2018-11-10T10:15:17.678Z,977.56
2018-11-10T10:16:24.839Z,977.63
2018-11-10T10:17:31.619Z,977.52
2018-11-10T10:18:38.523Z,977.50
2018-11-10T10:19:45.382Z,977.50
2018-11-10T10:20:52.298Z,977.53
2018-11-10T10:21:59.048Z,977.50
2018-11-10T10:23:05.807Z,977.43
2018-11-10T10:24:12.686Z,977.43
2018-11-10T10:25:19.515Z,977.49
2018-11-10T10:26:26.333Z,977.44
2018-11-10T10:27:33.199Z,977.47
2018-11-10T10:28:40.160Z,977.35
2018-11-10T10:29:46.846Z,977.31
2018-11-10T10:30:53.847Z,977.38
2018-11-10T10:32:00.725Z,977.36
2018-11-10T10:33:07.785Z,977.33
2018-11-10T10:34:14.665Z,977.33
2018-11-10T10:35:21.668Z,977.36
2018-11-10T10:36:28.439Z,977.30
2018-11-10T10:37:35.304Z,977.29
2018-11-10T10:38:42.203Z,977.22
2018-11-10T10:39:49.058Z,977.31
2018-11-10T10:40:55.917Z,977.30
2018-11-10T10:42:02.772Z,977.17
2018-11-10T10:43:09.797Z,977.18
2018-11-10T10:44:16.539Z,977.21
2018-11-10T10:45:23.432Z,977.24
2018-11-10T10:46:30.307Z,977.21
2018-11-10T10:47:37.194Z,977.21
2018-11-10T10:48:44.131Z,977.16
2018-11-10T10:49:50.956Z,977.19
2018-11-10T10:50:57.832Z,977.14
2018-11-10T10:52:04.748Z,977.16
2018-11-10T10:53:11.607Z,977.14
2018-11-10T10:54:18.476Z,977.10
2018-11-10T10:55:25.495Z,977.11
2018-11-10T10:56:32.427Z,977.07
2018-11-10T10:57:39.180Z,977.15
2018-11-10T10:58:46.282Z,977.07
2018-11-10T10:59:53.210Z,977.05
2018-11-10T11:01:00.031Z,977.02
2018-11-10T11:02:06.818Z,977.06
2018-11-10T11:03:13.851Z,976.98
2018-11-10T11:04:20.910Z,977.07
2018-11-10T11:05:27.809Z,976.95
2018-11-10T11:06:34.811Z,977.04
2018-11-10T11:07:41.587Z,977.01
2018-11-10T11:08:48.472Z,976.89
2018-11-10T11:09:55.231Z,976.96
2018-11-10T11:11:02.050Z,976.92
2018-11-10T11:12:09.038Z,976.95
2018-11-10T11:13:15.854Z,976.89
2018-11-10T11:14:22.711Z,976.93
2018-11-10T11:15:29.741Z,976.93
2018-11-10T11:16:36.524Z,976.91
2018-11-10T11:17:43.471Z,976.90
2018-11-10T11:18:50.324Z,976.84
2018-11-10T11:20:00.355Z,976.92
2018-11-10T11:21:04.201Z,976.84
2018-11-10T11:22:10.966Z,976.81
2018-11-10T11:23:17.719Z,976.83
2018-11-10T11:24:24.502Z,976.88
2018-11-10T11:25:31.483Z,976.86
2018-11-10T11:26:38.291Z,976.88
2018-11-10T11:27:45.091Z,976.83
2018-11-10T11:28:51.922Z,976.89
2018-11-10T11:29:58.751Z,976.89
2018-11-10T11:31:05.667Z,976.85
2018-11-10T11:32:12.455Z,976.88
2018-11-10T11:33:19.230Z,976.90
2018-11-10T11:34:26.048Z,976.82
2018-11-10T11:35:32.967Z,976.78
2018-11-10T11:36:39.794Z,976.79
2018-11-10T11:37:46.661Z,976.76
2018-11-10T11:38:53.528Z,976.85
2018-11-10T11:40:00.395Z,976.72
2018-11-10T11:41:07.307Z,976.78
2018-11-10T11:42:14.162Z,976.70
2018-11-10T11:43:20.981Z,976.78
2018-11-10T11:44:27.786Z,976.83
2018-11-10T11:45:34.570Z,976.76
2018-11-10T11:46:41.357Z,976.74
2018-11-10T11:47:48.153Z,976.79
2018-11-10T11:48:55.029Z,976.77
2018-11-10T11:50:01.949Z,976.74
2018-11-10T11:51:08.947Z,976.70
2018-11-10T11:52:15.743Z,976.67
2018-11-10T11:53:22.623Z,976.71
2018-11-10T11:54:29.742Z,976.69
2018-11-10T11:55:36.551Z,976.67
2018-11-10T11:56:43.351Z,976.77
2018-11-10T11:57:50.150Z,976.71
2018-11-10T11:58:56.882Z,976.62
2018-11-10T12:00:03.766Z,976.54
2018-11-10T12:01:10.742Z,976.55
2018-11-10T12:02:17.548Z,976.52
2018-11-10T12:03:24.280Z,976.57
2018-11-10T12:04:31.169Z,976.53
2018-11-10T12:05:38.050Z,976.48
2018-11-10T12:06:44.879Z,976.54
2018-11-10T12:07:51.634Z,976.54
2018-11-10T12:08:58.431Z,976.46
2018-11-10T12:10:05.267Z,976.51
2018-11-10T12:11:12.237Z,976.47
2018-11-10T12:12:19.058Z,976.55
2018-11-10T12:13:26.002Z,976.51
2018-11-10T12:14:33.067Z,976.51
2018-11-10T12:15:39.790Z,976.46
2018-11-10T12:16:46.618Z,976.49
2018-11-10T12:17:53.547Z,976.53
2018-11-10T12:19:00.455Z,976.44
2018-11-10T12:20:07.358Z,976.41
2018-11-10T12:21:14.365Z,976.51
2018-11-10T12:22:21.144Z,976.40
2018-11-10T12:23:28.161Z,976.46
2018-11-10T12:24:35.088Z,976.48
2018-11-10T12:25:42.276Z,976.44
2018-11-10T12:26:49.219Z,976.48
2018-11-10T12:27:55.858Z,976.45
2018-11-10T12:29:02.915Z,976.44
2018-11-10T12:30:09.737Z,976.46
2018-11-10T12:31:16.466Z,976.40
2018-11-10T12:32:23.444Z,976.41
2018-11-10T12:33:30.192Z,976.39
2018-11-10T12:34:37.048Z,976.41
2018-11-10T12:35:43.869Z,976.29
2018-11-10T12:36:50.725Z,976.36
2018-11-10T12:37:57.647Z,976.38
2018-11-10T12:39:05.939Z,976.38
2018-11-10T12:40:11.232Z,976.35
2018-11-10T12:41:17.894Z,976.29
2018-11-10T12:42:24.707Z,976.35
2018-11-10T12:43:32.170Z,976.30
2018-11-10T12:44:38.683Z,976.33
2018-11-10T12:45:45.789Z,976.33
2018-11-10T12:46:52.774Z,976.26
2018-11-10T12:47:59.674Z,976.32
2018-11-10T12:49:06.640Z,976.39
2018-11-10T12:50:13.776Z,976.29
2018-11-10T12:51:20.617Z,976.29
2018-11-10T12:52:27.486Z,976.33
2018-11-10T12:53:34.379Z,976.26
2018-11-10T12:54:41.279Z,976.27
2018-11-10T12:55:48.122Z,976.27
2018-11-10T12:56:54.978Z,976.18
2018-11-10T12:58:01.834Z,976.32
2018-11-10T12:59:08.718Z,976.27
2018-11-10T13:00:15.549Z,976.18
2018-11-10T13:01:22.471Z,976.22
2018-11-10T13:02:29.315Z,976.20
2018-11-10T13:03:36.129Z,976.17
2018-11-10T13:04:42.918Z,976.20
2018-11-10T13:05:49.742Z,976.18
2018-11-10T13:06:56.596Z,976.16
2018-11-10T13:08:03.426Z,976.20
2018-11-10T13:09:10.317Z,976.16
2018-11-10T13:10:16.952Z,976.11
2018-11-10T13:11:23.893Z,976.14
2018-11-10T13:12:31.068Z,976.12
2018-11-10T13:13:37.327Z,976.13
2018-11-10T13:14:44.116Z,976.11
2018-11-10T13:15:50.933Z,976.14
2018-11-10T13:16:57.759Z,976.09
2018-11-10T13:18:04.566Z,976.15
2018-11-10T13:19:11.342Z,976.11
2018-11-10T13:20:18.102Z,976.15
2018-11-10T13:21:24.894Z,976.05
2018-11-10T13:22:31.683Z,976.14
2018-11-10T13:23:38.494Z,976.04
2018-11-10T13:24:45.270Z,976.09
2018-11-10T13:25:52.133Z,976.05
2018-11-10T13:26:58.957Z,976.03
2018-11-10T13:28:05.828Z,976.04
2018-11-10T13:29:12.691Z,976.07
2018-11-10T13:30:19.511Z,976.09
2018-11-10T13:31:26.540Z,975.98
2018-11-10T13:32:33.224Z,976.09
2018-11-10T13:33:40.147Z,976.01
2018-11-10T13:34:46.922Z,976.06
2018-11-10T13:35:53.710Z,976.07
2018-11-10T13:37:00.551Z,976.15
2018-11-10T13:38:07.382Z,976.12
2018-11-10T13:39:14.344Z,976.11
2018-11-10T13:40:21.090Z,976.04
2018-11-10T13:41:27.866Z,976.10
2018-11-10T13:42:34.686Z,976.05
2018-11-10T13:43:41.537Z,976.09
2018-11-10T13:44:48.346Z,976.07
2018-11-10T13:45:55.184Z,976.05
2018-11-10T13:47:02.047Z,976.04
2018-11-10T13:48:08.903Z,975.99
2018-11-10T13:49:15.793Z,976.05
2018-11-10T13:50:22.683Z,976.03
2018-11-10T13:51:29.637Z,976.06
2018-11-10T13:52:36.923Z,976.08